Time;durP1;ratioP1;P1;durP2;ratioP2;P2;SDS_P1;SDS_P2;PMS_P1;PMS_P2;Temp;Humidity;BMP_temperature;BMP_pressure;BME280_temperature;BME280_humidity;BME280_pressure;Samples;Min_cycle;Max_cycle;Signal;HPM_P1;HPM_P2
2022/04/20 00:00:16;;;;;;;9.10;5.55;;;;;;;7.55;90.37;99995.53;1651682;84;21291;-56
2022/04/20 00:03:22;;;;;;;6.10;5.12;;;;;;;7.55;90.57;99980.05;1654176;86;21212;-57
2022/04/20 00:06:30;;;;;;;7.53;5.40;;;;;;;7.60;90.70;99988.59;1651595;86;21241;-57
2022/04/20 00:09:35;;;;;;;6.72;4.92;;;;;;;7.63;90.80;99985.52;1654827;86;21315;-57
2022/04/20 00:12:42;;;;;;;5.90;4.53;;;;;;;7.67;90.80;99983.83;1636607;86;21205;-56
2022/04/20 00:15:48;;;;;;;9.25;5.42;;;;;;;7.68;90.75;99984.16;1651387;86;21221;-56
2022/04/20 00:18:54;;;;;;;7.15;5.25;;;;;;;7.67;90.65;99992.86;1634345;86;21236;-56
2022/04/20 00:22:02;;;;;;;16.10;5.92;;;;;;;7.68;90.73;99994.55;1651219;86;21281;-56
2022/04/20 00:25:09;;;;;;;8.40;5.62;;;;;;;7.70;90.78;99984.85;1651681;86;21332;-56
2022/04/20 00:28:16;;;;;;;7.83;5.12;;;;;;;7.74;90.73;99987.60;1651852;86;21251;-56
2022/04/20 00:31:24;;;;;;;5.95;4.67;;;;;;;7.77;90.71;99983.17;1654370;86;21221;-57
2022/04/20 00:34:30;;;;;;;6.53;4.65;;;;;;;7.78;90.50;99985.73;1651327;86;21216;-57
2022/04/20 00:37:38;;;;;;;7.12;5.08;;;;;;;7.79;90.33;99982.47;1651412;86;21296;-56
2022/04/20 00:40:44;;;;;;;6.37;5.45;;;;;;;7.79;90.16;99984.70;1651567;86;21225;-57
2022/04/20 00:43:50;;;;;;;7.17;5.12;;;;;;;7.79;90.08;99989.28;1651575;86;21264;-57
2022/04/20 00:46:55;;;;;;;7.05;4.70;;;;;;;7.80;90.05;99997.82;1636308;87;21240;-56
2022/04/20 00:50:02;;;;;;;5.35;3.62;;;;;;;7.79;89.85;100008.36;1651795;86;21284;-57
2022/04/20 00:53:09;;;;;;;4.75;3.55;;;;;;;7.78;89.59;100015.70;1653840;86;21264;-57
2022/04/20 00:56:17;;;;;;;5.85;3.60;;;;;;;7.74;89.13;100010.23;1651478;86;21246;-58
2022/04/20 00:59:25;;;;;;;5.28;4.30;;;;;;;7.76;89.04;100003.24;1635616;84;21216;-57
2022/04/20 01:02:31;;;;;;;7.65;5.35;;;;;;;7.74;88.76;100002.05;1620139;88;21286;-57
2022/04/20 01:05:38;;;;;;;9.43;5.58;;;;;;;7.74;88.75;100010.76;1625879;88;21242;-56
2022/04/20 01:08:47;;;;;;;7.80;5.65;;;;;;;7.73;88.75;99998.13;1587876;90;21328;-55
2022/04/20 01:12:03;;;;;;;7.80;5.65;;;;;;;7.73;88.79;100000.36;1589107;90;21413;-57
2022/04/20 01:15:22;;;;;;;8.58;5.67;;;;;;;7.72;88.68;100014.15;1587288;90;21270;-56
2022/04/20 01:18:33;;;;;;;6.90;5.45;;;;;;;7.70;88.69;100018.91;1572999;91;21244;-57
2022/04/20 01:21:48;;;;;;;8.33;5.55;;;;;;;7.66;88.68;100021.09;1626027;88;21323;-56
2022/04/20 01:25:13;;;;;;;5.95;4.97;;;;;;;7.63;88.67;100035.92;1595566;90;21244;-57
2022/04/20 01:28:22;;;;;;;7.25;5.62;;;;;;;7.65;88.80;100049.38;1626057;88;21258;-57
2022/04/20 01:31:35;;;;;;;7.00;4.85;;;;;;;7.68;88.87;100052.26;1587964;90;21225;-56
2022/04/20 01:34:43;;;;;;;7.83;5.62;;;;;;;7.73;88.98;100056.20;1584061;90;21288;-57
2022/04/20 01:37:50;;;;;;;7.58;5.67;;;;;;;7.78;88.92;100052.98;1589164;89;21209;-57
2022/04/20 01:40:58;;;;;;;7.10;5.65;;;;;;;7.84;88.85;100055.03;1575807;90;21328;-57
2022/04/20 01:44:04;;;;;;;7.70;5.45;;;;;;;7.86;88.62;100058.45;1625368;88;21253;-57
2022/04/20 01:47:17;;;;;;;6.20;5.33;;;;;;;7.91;88.50;100058.81;1592657;90;21278;-57
2022/04/20 01:50:24;;;;;;;7.05;5.20;;;;;;;7.93;88.33;100049.44;1599739;88;21282;-58
2022/04/20 01:53:36;;;;;;;;;;;;;;;7.97;88.18;100048.60;1595263;90;21319;-56
2022/04/20 01:56:46;;;;;;;6.40;4.17;;;;;;;8.00;88.11;100044.17;1618074;88;20188;-57
2022/04/20 01:59:52;;;;;;;6.97;4.90;;;;;;;8.04;87.96;100044.20;1625981;88;21630;-57
2022/04/20 02:03:17;;;;;;;6.10;4.83;;;;;;;8.05;87.67;100037.21;1651822;86;21249;-56
2022/04/20 02:06:31;;;;;;;5.45;4.67;;;;;;;8.05;87.39;100031.77;1637490;86;21246;-56
2022/04/20 02:09:40;;;;;;;5.85;4.60;;;;;;;8.05;87.00;100025.45;1651799;86;21280;-56
2022/04/20 02:12:49;;;;;;;6.30;4.53;;;;;;;8.02;86.71;100024.42;1652131;86;21300;-55
2022/04/20 02:16:03;;;;;;;5.83;4.50;;;;;;;8.01;86.55;100037.19;1637517;86;21220;-56
2022/04/20 02:19:28;;;;;;;5.40;4.22;;;;;;;7.99;86.16;100031.58;1607071;89;21287;-57
2022/04/20 02:22:40;;;;;;;5.33;4.78;;;;;;;7.93;85.84;100036.34;1651787;86;21264;-56
2022/04/20 02:25:48;;;;;;;6.17;4.70;;;;;;;7.89;85.93;100048.58;1651612;86;21229;-56
2022/04/20 02:28:55;;;;;;;6.35;5.10;;;;;;;7.88;86.05;100049.08;1655192;86;21243;-57
2022/04/20 02:32:00;;;;;;;6.30;5.20;;;;;;;7.92;86.11;100055.05;1651548;86;21228;-57
2022/04/20 02:35:07;;;;;;;5.62;4.65;;;;;;;7.92;86.00;100042.80;1651608;86;21208;-57
2022/04/20 02:38:12;;;;;;;6.75;4.78;;;;;;;7.92;85.87;100046.87;1652263;86;21244;-57
2022/04/20 02:41:18;;;;;;;4.47;4.03;;;;;;;7.90;85.81;100048.91;1651587;86;21236;-57
2022/04/20 02:44:24;;;;;;;5.70;4.35;;;;;;;7.89;85.68;100051.30;1629856;86;21366;-57
2022/04/20 02:47:30;;;;;;;5.28;4.28;;;;;;;7.87;85.47;100047.88;1651725;86;21221;-56
2022/04/20 02:50:38;;;;;;;6.53;5.10;;;;;;;7.87;85.47;100050.11;1651808;87;21608;-56
2022/04/20 02:53:46;;;;;;;6.22;4.70;;;;;;;7.88;85.41;100041.44;1652259;86;21239;-56
2022/04/20 02:56:53;;;;;;;6.28;4.67;;;;;;;7.85;85.33;100032.23;1651733;86;21209;-56
2022/04/20 02:59:59;;;;;;;6.80;5.25;;;;;;;7.80;85.25;100034.07;1652244;86;21776;-56
2022/04/20 03:03:07;;;;;;;6.40;4.85;;;;;;;7.77;85.24;100039.86;1651035;86;21401;-56
2022/04/20 03:06:15;;;;;;;5.75;4.37;;;;;;;7.70;85.21;100033.39;1651323;87;21251;-56
2022/04/20 03:09:23;;;;;;;31.80;24.55;;;;;;;7.69;85.27;100034.91;1651182;87;21225;-56
2022/04/20 03:12:29;;;;;;;7.28;5.67;;;;;;;7.67;85.31;100030.13;1650147;87;21281;-56
2022/04/20 03:15:39;;;;;;;5.60;4.12;;;;;;;7.67;85.25;100026.91;1637985;87;21374;-56
2022/04/20 03:18:45;;;;;;;5.22;3.90;;;;;;;7.63;85.12;100020.94;1636107;87;21225;-56
2022/04/20 03:21:51;;;;;;;4.75;3.83;;;;;;;7.62;85.14;100017.02;1651023;87;21232;-56
2022/04/20 03:24:57;;;;;;;4.00;3.37;;;;;;;7.63;85.11;100024.69;1635811;87;21271;-57
2022/04/20 03:28:06;;;;;;;4.78;3.58;;;;;;;7.63;85.03;100028.77;1651106;87;21265;-56
2022/04/20 03:31:11;;;;;;;7.15;5.12;;;;;;;7.62;85.02;100032.00;1619337;88;21209;-56
2022/04/20 03:34:19;;;;;;;6.62;4.35;;;;;;;7.63;85.01;100033.69;1651359;87;21241;-56
2022/04/20 03:37:23;;;;;;;5.87;4.50;;;;;;;7.63;84.97;100040.00;1619192;88;21249;-55
2022/04/20 03:40:29;;;;;;;5.92;5.00;;;;;;;7.68;85.14;100047.67;1651140;87;21300;-57
2022/04/20 03:43:35;;;;;;;8.30;5.00;;;;;;;7.72;85.25;100066.77;1603567;88;21866;-57
2022/04/20 03:46:41;;;;;;;6.83;5.30;;;;;;;7.76;85.30;100077.67;1632510;88;21221;-57
2022/04/20 03:49:48;;;;;;;6.87;5.30;;;;;;;7.81;85.35;100083.48;1615816;88;21273;-56
2022/04/20 03:52:55;;;;;;;7.30;5.40;;;;;;;7.84;85.29;100070.02;1624635;88;21224;-57
2022/04/20 03:56:03;;;;;;;8.28;5.33;;;;;;;7.85;85.26;100066.30;1624749;88;21232;-56
2022/04/20 03:59:12;;;;;;;6.28;4.53;;;;;;;7.88;85.25;100078.22;1622891;88;21236;-57
2022/04/20 04:02:20;;;;;;;6.15;5.05;;;;;;;7.91;85.26;100080.61;1628118;88;21244;-57
2022/04/20 04:05:36;;;;;;;8.70;5.95;;;;;;;7.93;85.22;100082.67;1625039;88;21226;-57
2022/04/20 04:08:47;;;;;;;7.78;5.42;;;;;;;7.96;85.20;100089.15;1623551;88;21276;-57
2022/04/20 04:11:53;;;;;;;9.13;5.62;;;;;;;8.00;85.16;100099.55;1623799;88;21284;-57
2022/04/20 04:15:00;;;;;;;8.88;5.53;;;;;;;8.04;85.14;100106.36;1606974;88;21292;-57
2022/04/20 04:18:06;;;;;;;7.83;4.72;;;;;;;8.09;85.09;100102.63;1606867;88;21256;-57
2022/04/20 04:21:13;;;;;;;11.55;5.15;;;;;;;8.13;85.02;100104.02;1625026;88;21292;-58
2022/04/20 04:24:40;;;;;;;10.38;5.22;;;;;;;8.16;84.81;100102.81;1625105;88;21311;-56
2022/04/20 04:27:44;;;;;;;7.03;4.55;;;;;;;8.20;84.82;100101.45;1625417;88;21381;-57
2022/04/20 04:30:51;;;;;;;37.45;29.98;;;;;;;8.21;84.61;100097.72;1625649;88;21256;-56
2022/04/20 04:34:00;;;;;;;14.43;11.03;;;;;;;8.22;84.60;100088.50;1625448;88;21256;-57
2022/04/20 04:37:05;;;;;;;9.73;7.47;;;;;;;8.24;84.48;100077.83;1625500;88;21221;-56
2022/04/20 04:40:18;;;;;;;6.05;4.58;;;;;;;8.26;84.29;100070.30;1625180;88;21264;-58
2022/04/20 04:43:29;;;;;;;6.10;4.75;;;;;;;8.29;84.26;100069.97;1612859;88;21304;-57
2022/04/20 04:50:01;;;;;;;7.55;4.15;;;;;;;8.43;83.96;100080.23;1650563;87;21252;-58
2022/04/20 04:53:08;;;;;;;6.45;4.85;;;;;;;8.47;83.59;100093.86;1634549;87;21323;-58
2022/04/20 04:56:16;;;;;;;5.00;3.62;;;;;;;8.49;83.38;100095.05;1612438;87;21232;-58
2022/04/20 04:59:24;;;;;;;9.80;5.70;;;;;;;8.52;83.27;100097.44;1625484;87;21386;-57
2022/04/20 05:02:29;;;;;;;16.00;9.48;;;;;;;8.57;83.12;100084.14;1628923;87;21231;-57
2022/04/20 05:05:40;;;;;;;18.32;10.75;;;;;;;8.61;82.91;100080.90;1649195;83;21264;-57
2022/04/20 05:08:47;;;;;;;8.00;5.80;;;;;;;8.67;82.68;100063.00;1628223;87;21331;-58
2022/04/20 05:11:56;;;;;;;12.10;8.03;;;;;;;8.68;82.28;100064.20;1653195;86;21776;-58
2022/04/20 05:15:05;;;;;;;8.03;5.15;;;;;;;8.69;82.10;100054.11;1655854;85;21220;-58
2022/04/20 05:18:13;;;;;;;8.13;5.65;;;;;;;8.74;82.01;100064.00;1650424;87;21328;-58
2022/04/20 05:21:19;;;;;;;6.83;6.12;;;;;;;8.80;81.73;100075.63;1649605;86;22075;-57
2022/04/20 05:24:27;;;;;;;8.98;7.50;;;;;;;8.85;81.54;100080.89;1624777;88;21639;-57
2022/04/20 05:27:37;;;;;;;10.40;4.90;;;;;;;8.91;81.32;100098.47;1641253;86;21734;-58
2022/04/20 05:30:45;;;;;;;8.83;4.40;;;;;;;8.96;81.19;100120.62;1649199;86;21607;-58
2022/04/20 05:33:52;;;;;;;6.20;4.67;;;;;;;9.00;80.98;100116.54;1621679;88;21621;-58
2022/04/20 05:43:51;;;;;;;5.70;4.22;;;;;;;9.24;80.30;100070.58;1649948;87;21337;-57
2022/04/20 05:46:57;;;;;;;5.30;4.00;;;;;;;9.34;79.41;100057.59;1650319;87;21213;-58
2022/04/20 05:50:11;;;;;;;8.13;4.42;;;;;;;9.33;79.00;100057.23;1648034;87;21248;-58
2022/04/20 05:53:25;;;;;;;5.75;4.00;;;;;;;9.38;78.78;100072.08;1634472;87;21729;-58
2022/04/20 05:56:34;;;;;;;5.67;4.20;;;;;;;9.48;78.53;100080.91;1632523;87;21197;-60
2022/04/20 05:59:44;;;;;;;5.20;3.83;;;;;;;9.68;78.57;100084.94;1643419;87;21722;-60
2022/04/20 06:02:54;;;;;;;6.25;5.15;;;;;;;9.89;78.00;100072.89;1650625;87;21253;-59
2022/04/20 06:06:02;;;;;;;5.30;3.77;;;;;;;10.06;77.36;100070.39;1647199;86;21220;-60
2022/04/20 06:09:05;;;;;;;8.00;5.65;;;;;;;10.21;76.43;100062.30;1645942;86;21769;-60
2022/04/20 06:12:14;;;;;;;4.95;2.42;;;;;;;10.35;75.93;100071.91;1643790;86;21202;-61
2022/04/20 06:15:23;;;;;;;3.52;2.10;;;;;;;10.41;75.12;100079.42;1599231;88;21313;-60
2022/04/20 06:18:37;;;;;;;2.92;2.10;;;;;;;10.34;74.04;100096.22;1642145;86;21252;-61
2022/04/20 06:21:52;;;;;;;2.50;1.98;;;;;;;10.25;73.30;100115.09;1654945;86;21288;-60
2022/04/20 06:25:09;;;;;;;5.40;3.30;;;;;;;10.20;73.12;100122.98;1645162;85;21274;-60
2022/04/20 06:28:22;;;;;;;8.80;5.75;;;;;;;10.16;72.91;100125.73;1664004;86;21257;-66
2022/04/20 06:31:35;;;;;;;4.80;3.52;;;;;;;10.03;72.78;100115.88;1664379;86;21225;-60
2022/04/20 06:34:50;;;;;;;4.87;4.33;;;;;;;9.88;72.82;100108.58;1634261;86;21248;-61
2022/04/20 06:38:04;;;;;;;5.22;4.00;;;;;;;9.84;73.24;100101.27;1623255;88;21432;-59
2022/04/20 06:41:10;;;;;;;5.00;3.45;;;;;;;9.83;73.47;100103.65;1628137;88;22157;-61
2022/04/20 06:44:34;;;;;;;5.97;4.50;;;;;;;9.74;73.41;100117.02;1628536;88;21247;-60
2022/04/20 06:47:52;;;;;;;4.75;3.83;;;;;;;9.75;73.72;100114.62;1627817;88;21204;-60
2022/04/20 06:51:19;;;;;;;11.25;7.60;;;;;;;9.79;73.73;100113.75;1626356;88;21240;-61
2022/04/20 07:01:26;;;;;;;5.75;3.50;;;;;;;9.88;73.37;100105.34;1641334;87;21224;-59
2022/04/20 07:04:44;;;;;;;11.50;7.30;;;;;;;9.91;72.89;100095.95;1646185;86;21239;-59
2022/04/20 07:07:53;;;;;;;5.20;3.42;;;;;;;9.90;72.54;100090.98;1648546;84;21281;-60
2022/04/20 07:11:05;;;;;;;;;;;;;;;9.95;72.46;100082.23;1637842;86;21261;-58
2022/04/20 07:14:14;;;;;;;4.42;2.80;;;;;;;10.08;72.25;100084.78;1642599;85;20245;-60
2022/04/20 07:17:20;;;;;;;3.22;2.45;;;;;;;10.22;71.89;100082.63;1623251;87;21535;-59
2022/04/20 07:20:36;;;;;;;4.83;3.83;;;;;;;10.37;71.72;100079.44;1598228;87;21261;-61
2022/04/20 07:24:07;;;;;;;3.55;2.87;;;;;;;10.54;71.21;100084.28;1582203;90;21254;-61
2022/04/20 07:27:26;;;;;;;3.00;2.40;;;;;;;10.67;70.67;100079.56;1584936;89;21211;-59
2022/04/20 07:30:54;;;;;;;2.77;2.17;;;;;;;10.72;70.19;100073.84;1587390;89;21215;-61
2022/04/20 07:34:09;;;;;;;3.65;3.05;;;;;;;10.71;69.55;100077.64;1631913;87;21247;-59
2022/04/20 07:37:18;;;;;;;4.08;2.10;;;;;;;10.67;69.39;100084.53;1645310;87;21828;-59
2022/04/20 07:40:36;;;;;;;3.52;2.37;;;;;;;10.70;69.60;100087.41;1623965;87;21205;-60
2022/04/20 07:43:51;;;;;;;4.35;1.85;;;;;;;10.78;69.79;100098.29;1637758;87;21332;-60
2022/04/20 07:47:22;;;;;;;3.70;2.40;;;;;;;10.85;69.64;100093.76;1618137;88;21224;-60
2022/04/20 07:50:33;;;;;;;2.95;2.02;;;;;;;10.86;69.38;100098.22;1576525;90;21314;-60
2022/04/20 07:53:59;;;;;;;4.22;3.40;;;;;;;10.86;69.24;100094.94;1586693;90;21313;-57
2022/04/20 07:57:15;;;;;;;3.37;2.52;;;;;;;10.85;68.89;100078.19;1580022;88;21392;-55
2022/04/20 08:00:36;;;;;;;7.50;4.95;;;;;;;10.80;68.75;100074.32;1645135;87;21244;-58
2022/04/20 08:04:02;;;;;;;3.60;2.50;;;;;;;10.81;68.93;100069.16;1645505;87;21774;-60
2022/04/20 08:07:11;;;;;;;3.70;2.40;;;;;;;10.94;69.02;100068.02;1644801;87;21217;-59
2022/04/20 08:10:20;;;;;;;4.00;2.65;;;;;;;11.00;68.63;100064.53;1617965;87;21257;-59
2022/04/20 08:17:08;;;;;;;5.70;2.45;;;;;;;11.09;67.97;100067.52;1627116;87;21783;-58
2022/04/20 08:20:32;;;;;;;3.87;2.67;;;;;;;11.17;67.54;100066.06;1619124;88;21210;-60
2022/04/20 08:23:40;;;;;;;4.85;3.10;;;;;;;11.22;67.19;100078.69;1605895;88;21257;-60
2022/04/20 08:26:47;;;;;;;4.65;3.40;;;;;;;11.19;67.14;100085.91;1626796;87;21209;-59
2022/04/20 08:29:58;;;;;;;4.95;3.90;;;;;;;11.14;66.94;100093.84;1625907;88;21313;-59
2022/04/20 08:33:08;;;;;;;5.35;3.60;;;;;;;11.09;66.91;100101.25;1626068;88;21232;-59
2022/04/20 08:36:13;;;;;;;4.25;3.17;;;;;;;11.11;66.95;100095.58;1619748;88;21222;-60
2022/04/20 08:39:18;;;;;;;7.40;5.72;;;;;;;11.18;67.12;100082.85;1588910;88;21297;-59
2022/04/20 08:42:30;;;;;;;5.97;4.30;;;;;;;11.24;67.04;100087.03;1625826;88;21244;-59
2022/04/20 08:45:41;;;;;;;5.55;3.67;;;;;;;11.30;67.08;100097.78;1626048;88;21262;-59
2022/04/20 08:48:45;;;;;;;7.30;5.30;;;;;;;11.32;66.80;100102.56;1626317;88;21249;-59
2022/04/20 08:55:21;;;;;;;6.42;4.42;;;;;;;11.42;66.54;100100.38;1630652;86;21302;-60
2022/04/20 08:58:29;;;;;;;6.35;4.33;;;;;;;11.48;66.33;100095.54;1651788;87;21293;-59
2022/04/20 09:01:35;;;;;;;5.55;4.35;;;;;;;11.52;66.10;100084.52;1645536;87;21253;-59
2022/04/20 09:04:46;;;;;;;6.55;4.40;;;;;;;11.58;66.07;100085.13;1637987;87;21249;-59
2022/04/20 09:07:52;;;;;;;6.80;4.80;;;;;;;11.68;66.13;100079.73;1639483;86;21483;-59
2022/04/20 09:10:58;;;;;;;7.28;5.25;;;;;;;11.74;65.64;100083.59;1630530;86;22091;-58
2022/04/20 09:14:08;;;;;;;7.62;5.83;;;;;;;11.75;65.37;100075.68;1619526;88;21260;-59
2022/04/20 09:17:18;;;;;;;9.70;6.10;;;;;;;11.67;64.99;100074.44;1618862;88;21220;-59
2022/04/20 09:20:26;;;;;;;7.05;5.58;;;;;;;11.64;64.80;100073.42;1618715;88;21308;-59
2022/04/20 09:23:34;;;;;;;7.40;6.40;;;;;;;11.58;64.72;100080.50;1619329;88;21298;-59
2022/04/20 09:26:40;;;;;;;9.85;6.70;;;;;;;11.56;64.95;100081.74;1599565;88;21245;-59
2022/04/20 09:29:52;;;;;;;9.65;7.00;;;;;;;11.60;65.13;100082.54;1640218;87;21896;-60
2022/04/20 09:33:06;;;;;;;9.30;6.47;;;;;;;11.73;65.10;100085.47;1639512;87;21193;-60
2022/04/20 09:36:12;;;;;;;8.98;6.53;;;;;;;11.87;64.76;100087.88;1599012;89;21245;-59
2022/04/20 09:39:21;;;;;;;9.33;6.87;;;;;;;12.11;64.44;100088.93;1595706;88;21770;-60
2022/04/20 09:42:29;;;;;;;8.10;6.30;;;;;;;12.33;63.72;100103.02;1599712;89;21241;-60
2022/04/20 09:45:41;;;;;;;7.75;5.92;;;;;;;12.53;63.22;100095.84;1601524;88;21321;-59
2022/04/20 09:48:51;;;;;;;8.25;6.22;;;;;;;12.69;62.38;100103.83;1606018;88;21238;-60
2022/04/20 09:51:56;;;;;;;6.55;5.17;;;;;;;12.72;61.75;100104.80;1620092;88;21269;-57
2022/04/20 09:55:06;;;;;;;11.08;5.55;;;;;;;12.74;61.33;100102.72;1611827;88;21765;-58
2022/04/20 09:58:27;;;;;;;8.45;6.35;;;;;;;12.69;61.29;100111.20;1624638;88;21283;-58
2022/04/20 10:01:39;;;;;;;6.25;4.97;;;;;;;12.62;61.28;100107.02;1620200;87;21229;-59
2022/04/20 10:04:49;;;;;;;11.80;9.88;;;;;;;12.54;61.27;100104.39;1600210;88;21253;-59
2022/04/20 10:07:53;;;;;;;6.17;5.35;;;;;;;12.51;61.44;100095.72;1621742;87;21584;-59
2022/04/20 10:11:04;;;;;;;19.67;12.43;;;;;;;12.53;61.74;100097.21;1623193;84;21190;-59
2022/04/20 10:17:38;;;;;;;7.00;4.92;;;;;;;12.51;62.01;100103.95;1630074;87;21229;-58
2022/04/20 10:20:46;;;;;;;10.38;7.33;;;;;;;12.50;61.98;100114.59;1586664;89;21283;-55
2022/04/20 10:23:55;;;;;;;9.05;5.37;;;;;;;12.40;62.08;100116.82;1577317;90;21882;-59
2022/04/20 10:27:02;;;;;;;7.97;5.35;;;;;;;12.36;62.41;100103.14;1608771;87;22085;-58
2022/04/20 10:30:15;;;;;;;8.20;5.03;;;;;;;12.32;62.51;100102.67;1582229;90;21270;-58
2022/04/20 10:33:24;;;;;;;7.67;6.10;;;;;;;12.29;62.58;100100.86;1593879;90;21235;-59
2022/04/20 10:36:40;;;;;;;7.15;5.33;;;;;;;12.19;62.51;100104.42;1591917;89;21278;-58
2022/04/20 10:39:51;;;;;;;6.00;4.70;;;;;;;12.06;62.58;100107.86;1637717;87;22115;-59
2022/04/20 10:43:27;;;;;;;7.33;5.78;;;;;;;12.07;63.02;100105.44;1632995;87;21221;-59
2022/04/20 10:46:35;;;;;;;10.08;6.80;;;;;;;12.08;62.83;100104.41;1619661;88;21579;-60
2022/04/20 10:49:42;;;;;;;6.83;5.00;;;;;;;12.12;62.48;100119.44;1619751;88;21304;-60
2022/04/20 10:53:14;;;;;;;7.12;5.40;;;;;;;12.15;62.50;100119.05;1619936;88;21683;-59
2022/04/20 10:56:11;;;;;;;6.80;5.28;;;;;;;12.21;62.71;100127.05;1620088;88;21221;-59
2022/04/20 10:59:18;;;;;;;;;;;;;;;12.21;62.50;100120.19;1622420;88;21260;-58
2022/04/20 11:02:24;;;;;;;9.08;5.67;;;;;;;12.16;62.71;100128.14;1619513;88;20215;-58
2022/04/20 11:05:33;;;;;;;8.10;5.95;;;;;;;12.05;62.76;100124.83;1627879;87;21229;-59
2022/04/20 11:08:39;;;;;;;8.65;5.62;;;;;;;11.94;63.01;100130.80;1638846;87;21276;-58
2022/04/20 11:19:20;;;;;;;25.20;19.27;;;;;;;11.88;63.60;100118.37;1635308;87;21853;-59
2022/04/20 11:22:15;;;;;;;17.85;12.43;;;;;;;11.91;63.78;100115.25;1651745;86;21236;-59
2022/04/20 11:25:11;;;;;;;8.30;7.25;;;;;;;11.94;63.81;100113.48;1635956;86;21751;-59
2022/04/20 11:28:19;;;;;;;9.88;7.60;;;;;;;11.94;63.85;100112.12;1625099;87;21229;-58
2022/04/20 11:31:29;;;;;;;10.80;8.80;;;;;;;11.91;63.96;100117.98;1646939;86;21256;-59
2022/04/20 11:34:41;;;;;;;9.15;7.58;;;;;;;11.84;63.78;100122.01;1646108;87;21877;-59
2022/04/20 11:38:03;;;;;;;12.63;9.48;;;;;;;11.80;63.99;100125.33;1649200;85;21765;-59
2022/04/20 11:41:09;;;;;;;10.43;9.33;;;;;;;11.78;63.98;100117.83;1611660;89;21234;-59
2022/04/20 11:44:40;;;;;;;12.00;10.68;;;;;;;11.75;64.17;100099.84;1659767;86;21635;-59
2022/04/20 11:47:57;;;;;;;13.43;11.08;;;;;;;11.79;64.10;100095.70;1627402;88;21307;-59
2022/04/20 11:51:12;;;;;;;14.50;12.20;;;;;;;11.83;63.78;100098.89;1625091;88;21791;-58
2022/04/20 11:54:30;;;;;;;19.92;15.63;;;;;;;11.89;64.05;100104.47;1632661;86;21228;-59
2022/04/20 11:57:56;;;;;;;16.50;13.55;;;;;;;11.94;63.85;100105.26;1627037;88;21235;-60
2022/04/20 12:01:15;;;;;;;15.58;13.95;;;;;;;11.97;63.89;100100.80;1618635;88;21239;-58
2022/04/20 12:04:28;;;;;;;17.25;14.55;;;;;;;12.05;63.43;100100.66;1626021;88;21828;-59
2022/04/20 12:07:37;;;;;;;16.52;14.78;;;;;;;12.14;63.48;100102.77;1633372;86;21287;-59
2022/04/20 12:10:42;;;;;;;15.75;14.10;;;;;;;12.20;63.19;100094.63;1638115;86;21275;-58
2022/04/20 12:13:48;;;;;;;20.27;16.65;;;;;;;12.28;62.96;100090.39;1646830;84;21225;-59
2022/04/20 12:16:57;;;;;;;17.45;14.33;;;;;;;12.38;61.92;100104.66;1636201;87;21838;-59
2022/04/20 12:20:04;;;;;;;17.17;14.68;;;;;;;12.29;61.95;100098.11;1642411;87;21257;-59
2022/04/20 12:23:14;;;;;;;20.57;14.53;;;;;;;12.28;62.10;100091.77;1637153;86;21308;-60
2022/04/20 12:26:22;;;;;;;18.48;14.58;;;;;;;12.26;62.42;100089.73;1640164;86;21293;-58
2022/04/20 12:29:34;;;;;;;17.67;15.75;;;;;;;12.24;62.68;100086.32;1633370;87;21220;-59
2022/04/20 12:32:41;;;;;;;16.87;15.18;;;;;;;12.17;63.04;100073.57;1644433;87;21377;-58
2022/04/20 12:35:55;;;;;;;14.90;13.38;;;;;;;12.09;63.18;100066.31;1633911;87;21259;-60
2022/04/20 12:39:06;;;;;;;19.48;15.10;;;;;;;11.96;63.12;100064.78;1634191;85;21260;-59
2022/04/20 12:42:27;;;;;;;17.70;14.60;;;;;;;11.89;63.53;100063.33;1644566;85;21846;-59
2022/04/20 12:45:36;;;;;;;20.62;15.00;;;;;;;11.87;64.09;100066.80;1648990;87;21256;-59
2022/04/20 12:48:48;;;;;;;17.45;14.73;;;;;;;11.84;64.10;100076.76;1642463;85;21244;-60
2022/04/20 12:51:56;;;;;;;19.82;16.00;;;;;;;11.74;64.43;100082.22;1651127;85;21623;-60
2022/04/20 12:55:17;;;;;;;22.07;16.65;;;;;;;11.62;64.80;100087.29;1640341;86;21324;-60
2022/04/20 13:02:05;;;;;;;22.58;17.73;;;;;;;11.53;65.61;100088.94;1639288;87;21300;-58
2022/04/20 13:05:11;;;;;;;24.23;17.98;;;;;;;11.53;65.75;100093.05;1649997;87;21240;-59
2022/04/20 13:08:20;;;;;;;19.98;17.52;;;;;;;11.58;65.99;100099.69;1635067;87;21236;-59
2022/04/20 13:11:26;;;;;;;19.55;16.55;;;;;;;11.72;65.58;100102.11;1648779;87;21610;-59
2022/04/20 13:14:33;;;;;;;23.62;19.00;;;;;;;11.87;65.21;100098.86;1654524;83;21253;-59
2022/04/20 13:17:39;;;;;;;20.37;16.82;;;;;;;12.17;65.16;100086.78;1660534;86;21232;-59
2022/04/20 13:20:45;;;;;;;21.02;17.77;;;;;;;12.66;65.07;100089.62;1660645;86;21881;-59
2022/04/20 13:23:52;;;;;;;20.65;17.17;;;;;;;13.12;63.06;100090.41;1648200;86;21357;-59
2022/04/20 13:30:22;;;;;;;19.37;16.20;;;;;;;13.70;60.79;100091.85;1651226;86;21790;-55
2022/04/20 13:33:29;;;;;;;19.05;14.60;;;;;;;13.79;59.26;100082.40;1650813;86;21267;-55
2022/04/20 13:36:35;;;;;;;16.37;13.62;;;;;;;13.73;58.74;100071.36;1646549;86;21276;-55
2022/04/20 13:39:43;;;;;;;18.82;14.78;;;;;;;13.60;58.51;100079.53;1650306;86;21335;-58
2022/04/20 13:42:51;;;;;;;18.70;14.15;;;;;;;13.30;58.51;100089.91;1650178;87;21252;-58
2022/04/20 13:45:59;;;;;;;18.23;14.85;;;;;;;12.98;59.47;100087.20;1649633;86;21229;-58
2022/04/20 13:49:05;;;;;;;21.95;16.97;;;;;;;12.69;60.24;100085.97;1646484;85;21796;-59
2022/04/20 13:52:12;;;;;;;24.23;18.32;;;;;;;12.54;61.25;100085.17;1629920;87;21240;-59
2022/04/20 13:55:21;;;;;;;20.62;16.67;;;;;;;12.59;62.21;100085.44;1633707;86;21214;-58
2022/04/20 13:58:28;;;;;;;18.75;14.45;;;;;;;12.63;61.64;100090.88;1653980;86;21240;-59
2022/04/20 14:01:51;;;;;;;17.50;13.60;;;;;;;12.59;61.87;100085.98;1629778;87;21229;-58
2022/04/20 14:05:11;;;;;;;16.97;13.58;;;;;;;12.52;61.29;100087.28;1637113;87;21784;-59
2022/04/20 14:08:18;;;;;;;16.50;13.85;;;;;;;12.47;61.45;100088.90;1641266;87;21240;-59
2022/04/20 14:11:25;;;;;;;17.90;12.78;;;;;;;12.55;61.70;100088.27;1636765;87;21730;-60
2022/04/20 14:14:32;;;;;;;16.97;13.03;;;;;;;12.62;61.62;100090.53;1621973;87;21781;-59
2022/04/20 14:17:37;;;;;;;16.12;13.03;;;;;;;12.75;61.39;100094.80;1650921;86;21913;-59
2022/04/20 14:20:44;;;;;;;22.15;13.75;;;;;;;12.79;61.05;100095.25;1655832;86;21210;-60
2022/04/20 14:23:51;;;;;;;15.70;12.50;;;;;;;12.69;61.25;100096.95;1656278;86;21261;-58
2022/04/20 14:33:56;;;;;;;14.38;12.07;;;;;;;12.14;62.91;100099.52;1651885;86;21284;-58
2022/04/20 14:37:04;;;;;;;16.57;12.53;;;;;;;12.08;63.53;100091.52;1652411;86;21231;-58
2022/04/20 14:40:11;;;;;;;15.08;11.48;;;;;;;12.11;64.19;100099.05;1652352;86;21236;-58
2022/04/20 14:43:19;;;;;;;16.75;12.53;;;;;;;12.05;64.42;100101.52;1652812;86;21296;-58
2022/04/20 14:46:26;;;;;;;13.78;11.33;;;;;;;11.93;65.63;100106.31;1652493;86;21790;-59
2022/04/20 14:49:32;;;;;;;17.50;11.22;;;;;;;11.88;66.86;100106.03;1651953;86;21244;-58
2022/04/20 14:52:38;;;;;;;16.37;11.60;;;;;;;11.84;67.62;100104.19;1650214;87;21240;-58
2022/04/20 14:55:44;;;;;;;12.37;10.30;;;;;;;11.79;67.56;100104.44;1651760;87;21500;-58
2022/04/20 14:58:50;;;;;;;11.15;9.03;;;;;;;11.65;67.30;100113.53;1636915;86;21358;-58
2022/04/20 15:01:58;;;;;;;11.30;9.20;;;;;;;11.40;67.34;100121.67;1650724;87;21831;-58
2022/04/20 15:05:05;;;;;;;12.13;9.48;;;;;;;11.21;67.65;100112.62;1646374;87;21260;-59
2022/04/20 15:08:12;;;;;;;17.87;13.05;;;;;;;11.11;68.21;100117.50;1639380;85;21825;-59
2022/04/20 15:11:18;;;;;;;18.15;13.00;;;;;;;11.05;68.75;100119.08;1612687;88;21235;-59
2022/04/20 15:14:26;;;;;;;16.48;12.33;;;;;;;11.00;69.33;100124.79;1624977;88;21300;-59
2022/04/20 15:17:33;;;;;;;20.75;13.35;;;;;;;10.96;69.87;100113.86;1634287;87;21229;-59
2022/04/20 15:20:40;;;;;;;21.75;15.13;;;;;;;10.97;70.05;100119.69;1637127;87;21262;-59
2022/04/20 15:23:48;;;;;;;15.75;11.22;;;;;;;10.94;69.73;100114.04;1632209;88;21798;-59
2022/04/20 15:26:55;;;;;;;15.78;11.75;;;;;;;10.91;69.74;100108.11;1640039;87;21775;-59
2022/04/20 15:30:01;;;;;;;13.93;11.05;;;;;;;10.89;69.95;100110.17;1640187;87;21398;-58